KMHK/MHK METAR and TAF weather

Enter ICAO airport designator
Station Type Date Time Source
KMHK METAR 2020/04/10 16:52 UTC NOAA

KMHK 101652Z 20009KT 140V250 10SM CLR 09/M08 A3018 RMK AO2 SLP226 T00941078


Station Type Date Time Source
KMHK Decoded METAR 2020/04/10 16:52 UTC NOAA

MANHATTAN REGIONAL AIRPORT, KS, United States (KMHK) 39-08N 96-41W 317M
Apr 10, 2020 - 12:52 PM EDT / 2020.04.10 1652 UTC
Wind: from the SSW (200 degrees) at 10 MPH (9 KT) (direction variable):0
Visibility: 10 mile(s):0
Sky conditions: clear
Temperature: 48.9 F (9.4 C)
Dew Point: 18.0 F (-7.8 C)
Relative Humidity: 28%
Pressure (altimeter): 30.18 in. Hg (1022 hPa)
ob: KMHK 101652Z 20009KT 140V250 10SM CLR 09/M08 A3018 RMK AO2 SLP226 T00941078
cycle: 17

Station Type Date Time Source
KMHK TAF 2020/04/10 18:22 UTC NOAA

TAF KMHK 101720Z 1018/1118 18009KT P6SM SCT100
FM110400 19011KT P6SM SCT150 WS020/21048KT
FM111500 20015G24KT P6SM SCT025 BKN040

Example: see airport list